createdAt,value
2018-09-19T00:00:04.557Z,89.50
2018-09-19T00:00:35.590Z,89.50
2018-09-19T00:01:06.654Z,89.50
2018-09-19T00:01:37.707Z,89.50
2018-09-19T00:02:08.758Z,89.50
2018-09-19T00:02:39.805Z,89.50
2018-09-19T00:03:16.237Z,89.40
2018-09-19T00:03:47.272Z,89.40
2018-09-19T00:04:18.327Z,89.40
2018-09-19T00:04:49.365Z,89.40
2018-09-19T00:05:20.411Z,89.40
2018-09-19T00:05:51.450Z,89.40
2018-09-19T00:06:22.506Z,89.30
2018-09-19T00:06:53.560Z,89.30
2018-09-19T00:07:24.607Z,89.40
2018-09-19T00:07:55.653Z,89.30
2018-09-19T00:08:26.862Z,89.40
2018-09-19T00:08:57.910Z,90.00
2018-09-19T00:09:28.949Z,89.40
2018-09-19T00:09:59.995Z,89.40
2018-09-19T00:10:31.055Z,89.40
2018-09-19T00:11:02.096Z,89.40
2018-09-19T00:11:33.152Z,89.40
2018-09-19T00:12:04.219Z,89.40
2018-09-19T00:12:35.240Z,89.30
2018-09-19T00:13:06.303Z,89.30
2018-09-19T00:13:37.348Z,89.20
2018-09-19T00:14:08.388Z,89.10
2018-09-19T00:14:39.482Z,89.10
2018-09-19T00:15:10.472Z,89.10
2018-09-19T00:15:41.515Z,89.10
2018-09-19T00:16:12.568Z,89.00
2018-09-19T00:16:43.619Z,89.00
2018-09-19T00:17:14.676Z,89.00
2018-09-19T00:17:45.719Z,89.00
2018-09-19T00:18:16.766Z,89.00
2018-09-19T00:18:47.818Z,89.00
2018-09-19T00:19:18.855Z,89.00
2018-09-19T00:19:49.899Z,89.00
2018-09-19T00:20:21.053Z,89.00
2018-09-19T00:20:52.000Z,89.80
2018-09-19T00:21:23.044Z,89.00
2018-09-19T00:21:54.136Z,89.00
2018-09-19T00:22:25.141Z,89.00
2018-09-19T00:22:56.220Z,89.00
2018-09-19T00:23:27.226Z,89.00
2018-09-19T00:23:58.278Z,89.00
2018-09-19T00:24:29.316Z,89.00
2018-09-19T00:25:00.363Z,89.00
2018-09-19T00:25:31.407Z,89.00
2018-09-19T00:26:02.446Z,89.00
2018-09-19T00:26:33.504Z,89.70
2018-09-19T00:27:04.558Z,89.00
2018-09-19T00:27:35.596Z,89.00
2018-09-19T00:28:06.627Z,89.00
2018-09-19T00:28:37.680Z,89.00
2018-09-19T00:29:08.727Z,89.00
2018-09-19T00:29:39.779Z,89.00
2018-09-19T00:30:10.828Z,89.00
2018-09-19T00:30:41.881Z,89.00
2018-09-19T00:31:12.933Z,89.00
2018-09-19T00:31:43.979Z,89.00
2018-09-19T00:32:15.024Z,89.10
2018-09-19T00:32:46.065Z,89.00
2018-09-19T00:33:17.119Z,89.10
2018-09-19T00:33:48.162Z,89.20
2018-09-19T00:34:19.208Z,89.50
2018-09-19T00:34:50.252Z,89.60
2018-09-19T00:35:21.305Z,89.60
2018-09-19T00:35:52.394Z,89.60
2018-09-19T00:36:23.443Z,89.50
2018-09-19T00:36:54.582Z,89.50
2018-09-19T00:37:25.632Z,89.50
2018-09-19T00:37:56.685Z,89.40
2018-09-19T00:38:27.718Z,89.40
2018-09-19T00:38:58.766Z,89.40
2018-09-19T00:39:29.818Z,89.40
2018-09-19T00:40:00.920Z,89.40
2018-09-19T00:40:31.912Z,89.40
2018-09-19T00:41:02.951Z,89.30
2018-09-19T00:41:34.137Z,89.30
2018-09-19T00:42:05.170Z,89.40
2018-09-19T00:42:36.215Z,89.30
2018-09-19T00:43:07.276Z,89.30
2018-09-19T00:43:38.331Z,89.30
2018-09-19T00:44:09.374Z,89.30
2018-09-19T00:44:40.427Z,89.30
2018-09-19T00:45:11.486Z,89.30
2018-09-19T00:45:42.515Z,89.40
2018-09-19T00:46:13.563Z,89.30
2018-09-19T00:46:44.622Z,89.40
2018-09-19T00:47:15.667Z,89.40
2018-09-19T00:47:46.736Z,89.40
2018-09-19T00:48:17.789Z,89.30
2018-09-19T00:48:48.835Z,89.30
2018-09-19T00:49:19.879Z,89.20
2018-09-19T00:49:50.927Z,89.10
2018-09-19T00:50:21.978Z,89.10
2018-09-19T00:50:53.031Z,89.00
2018-09-19T00:51:24.051Z,89.10
2018-09-19T00:51:55.102Z,89.00
2018-09-19T00:52:26.147Z,89.00
2018-09-19T00:52:57.247Z,88.90
2018-09-19T00:53:28.280Z,88.90
2018-09-19T00:53:59.323Z,89.00
2018-09-19T00:54:30.537Z,88.90
2018-09-19T00:55:01.580Z,89.00
2018-09-19T00:55:32.617Z,89.00
2018-09-19T00:56:03.666Z,89.00
2018-09-19T00:56:34.727Z,89.00
2018-09-19T00:57:05.784Z,88.70
2018-09-19T00:57:36.850Z,89.00
2018-09-19T00:58:07.876Z,88.90
2018-09-19T00:58:38.914Z,89.00
2018-09-19T00:59:09.955Z,88.90
2018-09-19T00:59:40.998Z,89.00
2018-09-19T01:00:12.047Z,88.90
2018-09-19T01:00:43.096Z,88.90
2018-09-19T01:01:14.143Z,89.00
2018-09-19T01:01:45.197Z,89.00
2018-09-19T01:02:16.268Z,89.00
2018-09-19T01:02:47.395Z,89.00
2018-09-19T01:03:18.443Z,89.00
2018-09-19T01:03:49.486Z,89.00
2018-09-19T01:04:20.527Z,89.00
2018-09-19T01:04:51.599Z,89.00
2018-09-19T01:05:22.645Z,89.00
2018-09-19T01:05:53.712Z,89.00
2018-09-19T01:06:24.735Z,89.00
2018-09-19T01:06:55.793Z,89.00
2018-09-19T01:07:26.837Z,89.00
2018-09-19T01:07:57.887Z,89.00
2018-09-19T01:08:28.926Z,89.00
2018-09-19T01:08:59.974Z,89.00
2018-09-19T01:09:31.023Z,89.00
2018-09-19T01:10:02.068Z,89.30
2018-09-19T01:10:33.123Z,89.40
2018-09-19T01:11:04.167Z,89.60
2018-09-19T01:11:35.212Z,89.60
2018-09-19T01:12:06.283Z,89.50
2018-09-19T01:12:37.324Z,89.70
2018-09-19T01:13:08.379Z,89.40
2018-09-19T01:13:39.425Z,89.30
2018-09-19T01:14:10.468Z,89.40
2018-09-19T01:14:41.511Z,89.20
2018-09-19T01:15:12.558Z,89.30
2018-09-19T01:15:43.598Z,90.00
2018-09-19T01:16:14.648Z,89.20
2018-09-19T01:16:45.714Z,89.10
2018-09-19T01:17:16.755Z,89.10
2018-09-19T01:17:47.799Z,89.20
2018-09-19T01:18:18.851Z,89.10
2018-09-19T01:18:49.907Z,89.10
2018-09-19T01:19:20.948Z,89.10
2018-09-19T01:19:51.995Z,89.10
2018-09-19T01:20:23.049Z,89.90
2018-09-19T01:20:54.106Z,89.10
2018-09-19T01:21:25.158Z,89.20
2018-09-19T01:21:56.206Z,89.20
2018-09-19T01:22:27.251Z,89.20
2018-09-19T01:22:58.290Z,89.30
2018-09-19T01:23:29.343Z,89.20
2018-09-19T01:24:00.401Z,89.20
2018-09-19T01:24:31.448Z,89.20
2018-09-19T01:25:02.479Z,89.20
2018-09-19T01:25:33.527Z,89.10
2018-09-19T01:26:04.575Z,89.00
2018-09-19T01:26:35.621Z,89.10
2018-09-19T01:27:06.680Z,89.00
2018-09-19T01:27:37.726Z,89.00
2018-09-19T01:28:08.769Z,88.90
2018-09-19T01:28:39.817Z,88.80
2018-09-19T01:29:10.861Z,88.90
2018-09-19T01:29:41.900Z,88.80
2018-09-19T01:30:12.952Z,88.90
2018-09-19T01:30:43.998Z,88.90
2018-09-19T01:31:15.043Z,88.80
2018-09-19T01:31:46.085Z,88.80
2018-09-19T01:32:17.134Z,88.80
2018-09-19T01:32:48.179Z,88.80
2018-09-19T01:33:19.231Z,88.80
2018-09-19T01:33:50.275Z,88.80
2018-09-19T01:34:21.323Z,88.80
2018-09-19T01:34:52.369Z,88.80
2018-09-19T01:35:23.417Z,88.80
2018-09-19T01:35:54.455Z,88.70
2018-09-19T01:36:25.500Z,88.90
2018-09-19T01:36:56.543Z,88.80
2018-09-19T01:37:27.605Z,88.80
2018-09-19T01:37:58.644Z,88.80
2018-09-19T01:38:29.692Z,88.80
2018-09-19T01:39:00.735Z,88.90
2018-09-19T01:39:31.832Z,88.90
2018-09-19T01:40:02.885Z,88.90
2018-09-19T01:40:33.872Z,88.90
2018-09-19T01:41:04.927Z,88.90
2018-09-19T01:41:35.971Z,89.00
2018-09-19T01:42:07.020Z,88.90
2018-09-19T01:42:38.072Z,88.80
2018-09-19T01:43:09.111Z,88.90
2018-09-19T01:43:40.152Z,88.90
2018-09-19T01:44:11.196Z,88.90
2018-09-19T01:44:42.243Z,89.00
2018-09-19T01:45:13.290Z,88.90
2018-09-19T01:45:44.339Z,89.00
2018-09-19T01:46:15.392Z,89.10
2018-09-19T01:46:46.444Z,89.20
2018-09-19T01:47:17.531Z,89.50
2018-09-19T01:47:48.611Z,89.50
2018-09-19T01:48:19.599Z,89.60
2018-09-19T01:48:50.638Z,89.60
2018-09-19T01:49:21.683Z,90.10
2018-09-19T01:49:52.731Z,89.50
2018-09-19T01:50:23.778Z,89.40
2018-09-19T01:50:54.826Z,89.30
2018-09-19T01:51:25.872Z,89.20
2018-09-19T01:51:56.918Z,89.20
2018-09-19T01:52:27.975Z,89.20
2018-09-19T01:52:59.022Z,89.20
2018-09-19T01:53:30.065Z,89.10
2018-09-19T01:54:01.106Z,89.10
2018-09-19T01:54:32.156Z,89.10
2018-09-19T01:55:03.195Z,89.10
2018-09-19T01:55:34.246Z,89.20
2018-09-19T01:56:05.295Z,89.20
2018-09-19T01:56:36.331Z,89.10
2018-09-19T01:57:07.386Z,89.10
2018-09-19T01:57:38.428Z,89.20
2018-09-19T01:58:09.471Z,89.30
2018-09-19T01:58:40.573Z,89.20
2018-09-19T01:59:11.565Z,89.20
2018-09-19T01:59:42.608Z,89.20
2018-09-19T02:00:13.663Z,89.20
2018-09-19T02:00:44.705Z,89.20
2018-09-19T02:01:15.766Z,89.20
2018-09-19T02:01:46.787Z,89.10
2018-09-19T02:02:17.843Z,89.10
2018-09-19T02:02:48.923Z,89.00
2018-09-19T02:03:19.972Z,88.90
2018-09-19T02:03:51.028Z,89.70
2018-09-19T02:04:22.070Z,88.80
2018-09-19T02:04:53.117Z,88.80
2018-09-19T02:05:24.170Z,89.70
2018-09-19T02:05:55.206Z,88.80
2018-09-19T02:06:26.250Z,88.80
2018-09-19T02:06:57.298Z,88.80
2018-09-19T02:07:28.354Z,88.80
2018-09-19T02:07:59.391Z,88.80
2018-09-19T02:08:30.437Z,88.80
2018-09-19T02:09:01.479Z,88.80
2018-09-19T02:09:32.540Z,88.80
2018-09-19T02:10:03.567Z,88.70
2018-09-19T02:10:34.607Z,89.50
2018-09-19T02:11:05.753Z,88.70
2018-09-19T02:11:36.794Z,88.70
2018-09-19T02:12:08.105Z,88.80
2018-09-19T02:12:39.159Z,88.70
2018-09-19T02:13:10.204Z,88.80
2018-09-19T02:13:41.247Z,88.80
2018-09-19T02:14:12.290Z,88.70
2018-09-19T02:14:43.335Z,88.80
2018-09-19T02:15:14.386Z,88.80
2018-09-19T02:15:45.478Z,88.80
2018-09-19T02:16:16.473Z,88.80
2018-09-19T02:16:47.516Z,88.80
2018-09-19T02:17:18.570Z,88.80
2018-09-19T02:17:49.612Z,88.80
2018-09-19T02:18:20.664Z,88.20
2018-09-19T02:18:51.710Z,88.90
2018-09-19T02:19:22.789Z,88.80
2018-09-19T02:19:53.804Z,88.80
2018-09-19T02:20:25.197Z,88.80
2018-09-19T02:20:56.204Z,88.80
2018-09-19T02:21:27.238Z,88.80
2018-09-19T02:21:58.279Z,88.80
2018-09-19T02:22:29.334Z,88.90
2018-09-19T02:23:00.377Z,89.10
2018-09-19T02:23:31.421Z,89.40
2018-09-19T02:24:02.463Z,89.50
2018-09-19T02:24:33.512Z,89.60
2018-09-19T02:25:04.556Z,89.60
2018-09-19T02:25:35.599Z,89.40
2018-09-19T02:26:06.650Z,89.40
2018-09-19T02:26:37.703Z,89.30
2018-09-19T02:27:08.747Z,89.20
2018-09-19T02:27:39.799Z,89.20
2018-09-19T02:28:10.844Z,89.10
2018-09-19T02:28:41.911Z,89.10
2018-09-19T02:29:12.936Z,89.10
2018-09-19T02:29:43.983Z,89.00
2018-09-19T02:30:15.045Z,89.00
2018-09-19T02:30:46.090Z,88.90
2018-09-19T02:31:17.138Z,88.90
2018-09-19T02:31:48.181Z,88.80
2018-09-19T02:32:19.223Z,88.80
2018-09-19T02:32:50.283Z,89.00
2018-09-19T02:33:21.329Z,88.90
2018-09-19T02:33:52.366Z,88.90
2018-09-19T02:34:23.416Z,89.00
2018-09-19T02:34:54.463Z,89.10
2018-09-19T02:35:25.512Z,89.10
2018-09-19T02:35:56.556Z,89.20
2018-09-19T02:36:27.602Z,89.20
2018-09-19T02:36:58.653Z,89.10
2018-09-19T02:37:29.707Z,89.00
2018-09-19T02:38:00.866Z,89.00
2018-09-19T02:38:31.916Z,88.80
2018-09-19T02:39:02.965Z,88.80
2018-09-19T02:39:34.035Z,88.80
2018-09-19T02:40:05.048Z,88.80
2018-09-19T02:40:36.093Z,88.70
2018-09-19T02:41:07.146Z,88.70
2018-09-19T02:41:38.180Z,88.70
2018-09-19T02:42:09.223Z,88.70
2018-09-19T02:42:40.272Z,88.70
2018-09-19T02:43:11.326Z,88.70
2018-09-19T02:43:42.363Z,88.60
2018-09-19T02:44:13.406Z,88.60
2018-09-19T02:44:44.456Z,88.70
2018-09-19T02:45:15.510Z,88.70
2018-09-19T02:45:46.551Z,88.60
2018-09-19T02:46:17.592Z,88.60
2018-09-19T02:46:48.644Z,88.60
2018-09-19T02:47:19.688Z,88.60
2018-09-19T02:47:50.753Z,88.60
2018-09-19T02:48:21.795Z,88.60
2018-09-19T02:48:52.867Z,88.70
2018-09-19T02:49:23.909Z,88.60
2018-09-19T02:49:54.958Z,88.60
2018-09-19T02:50:25.998Z,88.60
2018-09-19T02:50:57.055Z,88.70
2018-09-19T02:51:28.105Z,88.70
2018-09-19T02:51:59.148Z,88.60
2018-09-19T02:52:30.194Z,88.70
2018-09-19T02:53:01.237Z,88.70
2018-09-19T02:53:32.280Z,88.70
2018-09-19T02:54:03.322Z,88.60
2018-09-19T02:54:34.367Z,88.60
2018-09-19T02:55:05.409Z,88.60
2018-09-19T02:55:36.453Z,88.60
2018-09-19T02:56:07.519Z,88.70
2018-09-19T02:56:38.537Z,88.70
2018-09-19T02:57:09.594Z,88.70
2018-09-19T02:57:40.640Z,88.70
2018-09-19T02:58:11.678Z,88.80
2018-09-19T02:58:42.732Z,88.80
2018-09-19T02:59:13.775Z,89.00
2018-09-19T02:59:44.827Z,89.30
2018-09-19T03:00:15.876Z,89.40
2018-09-19T03:00:46.917Z,89.40
2018-09-19T03:01:17.979Z,89.50
2018-09-19T03:01:49.019Z,89.30
2018-09-19T03:02:20.062Z,89.20
2018-09-19T03:02:51.119Z,89.20
2018-09-19T03:03:22.159Z,89.10
2018-09-19T03:03:53.218Z,89.10
2018-09-19T03:04:24.258Z,89.00
2018-09-19T03:04:55.303Z,89.00
2018-09-19T03:05:26.396Z,88.80
2018-09-19T03:05:57.446Z,88.70
2018-09-19T03:06:28.494Z,88.80
2018-09-19T03:06:59.528Z,88.70
2018-09-19T03:07:30.588Z,88.70
2018-09-19T03:08:01.801Z,88.70
2018-09-19T03:08:32.840Z,88.70
2018-09-19T03:09:03.887Z,88.70
2018-09-19T03:09:34.940Z,88.70
2018-09-19T03:10:05.983Z,88.90
2018-09-19T03:10:37.027Z,88.90
2018-09-19T03:11:08.077Z,89.00
2018-09-19T03:11:39.114Z,89.00
2018-09-19T03:12:10.167Z,89.00
2018-09-19T03:12:41.219Z,89.00
2018-09-19T03:13:12.259Z,89.00
2018-09-19T03:13:43.303Z,88.90
2018-09-19T03:14:14.349Z,88.80
2018-09-19T03:14:45.400Z,88.70
2018-09-19T03:15:16.434Z,88.70
2018-09-19T03:15:47.483Z,88.70
2018-09-19T03:16:18.528Z,88.60
2018-09-19T03:17:20.672Z,88.60
2018-09-19T03:17:51.778Z,88.50
2018-09-19T03:18:22.734Z,88.70
2018-09-19T03:18:53.767Z,88.60
2018-09-19T03:19:24.807Z,88.60
2018-09-19T03:19:55.850Z,88.60
2018-09-19T03:20:26.900Z,88.50
2018-09-19T03:20:57.943Z,88.50
2018-09-19T03:21:28.991Z,88.60
2018-09-19T03:22:00.040Z,88.50
2018-09-19T03:22:31.089Z,88.50
2018-09-19T03:23:02.155Z,88.50
2018-09-19T03:23:33.203Z,88.50
2018-09-19T03:24:04.247Z,88.50
2018-09-19T03:24:35.291Z,88.50
2018-09-19T03:25:06.334Z,88.50
2018-09-19T03:25:37.380Z,88.50
2018-09-19T03:26:08.427Z,88.60
2018-09-19T03:26:39.474Z,88.60
2018-09-19T03:27:10.527Z,88.60
2018-09-19T03:27:41.570Z,88.60
2018-09-19T03:28:12.739Z,88.50
2018-09-19T03:28:43.778Z,88.50
2018-09-19T03:29:14.818Z,88.60
2018-09-19T03:29:45.863Z,88.50
2018-09-19T03:30:16.917Z,88.60
2018-09-19T03:30:47.961Z,88.70
2018-09-19T03:31:19.018Z,88.70
2018-09-19T03:31:50.054Z,88.70
2018-09-19T03:32:21.099Z,88.50
2018-09-19T03:32:52.168Z,88.60
2018-09-19T03:33:23.197Z,88.60
2018-09-19T03:33:54.241Z,88.70
2018-09-19T03:34:25.279Z,89.50
2018-09-19T03:34:56.322Z,88.80
2018-09-19T03:35:27.400Z,88.90
2018-09-19T03:35:58.416Z,89.10
2018-09-19T03:36:29.459Z,89.30
2018-09-19T03:37:00.503Z,89.40
2018-09-19T03:37:31.551Z,89.40
2018-09-19T03:38:02.593Z,89.40
2018-09-19T03:38:33.636Z,89.10
2018-09-19T03:39:04.688Z,89.10
2018-09-19T03:39:35.732Z,89.00
2018-09-19T03:40:06.768Z,88.90
2018-09-19T03:40:37.816Z,88.40
2018-09-19T03:41:08.855Z,88.80
2018-09-19T03:41:39.907Z,88.70
2018-09-19T03:42:10.948Z,88.70
2018-09-19T03:42:41.990Z,88.70
2018-09-19T03:43:13.034Z,88.70
2018-09-19T03:43:44.090Z,88.50
2018-09-19T03:44:15.122Z,88.70
2018-09-19T03:44:46.168Z,88.50
2018-09-19T03:45:17.211Z,88.60
2018-09-19T03:45:48.256Z,88.60
2018-09-19T03:46:19.300Z,88.70
2018-09-19T03:46:50.347Z,88.80
2018-09-19T03:47:21.395Z,89.00
2018-09-19T03:47:52.488Z,88.80
2018-09-19T03:48:23.542Z,88.80
2018-09-19T03:48:54.623Z,88.80
2018-09-19T03:49:25.642Z,88.70
2018-09-19T03:49:56.680Z,89.40
2018-09-19T03:50:27.728Z,88.60
2018-09-19T03:50:58.775Z,88.50
2018-09-19T03:51:29.825Z,88.50
2018-09-19T03:52:00.864Z,88.40
2018-09-19T03:52:31.911Z,88.40
2018-09-19T03:53:02.962Z,88.40
2018-09-19T03:53:34.000Z,88.40
2018-09-19T03:54:05.047Z,88.40
2018-09-19T03:54:36.099Z,88.40
2018-09-19T03:55:07.179Z,88.40
2018-09-19T03:55:38.273Z,88.40
2018-09-19T03:56:09.349Z,88.50
2018-09-19T03:56:40.383Z,88.30
2018-09-19T03:57:11.430Z,88.40
2018-09-19T03:57:42.569Z,88.40
2018-09-19T03:58:13.693Z,88.40
2018-09-19T03:58:44.662Z,88.40
2018-09-19T03:59:15.729Z,88.40
2018-09-19T03:59:46.779Z,88.30
2018-09-19T04:00:17.828Z,88.40
2018-09-19T04:00:48.865Z,88.30
2018-09-19T04:01:19.907Z,88.30
2018-09-19T04:01:50.953Z,88.30
2018-09-19T04:02:22.066Z,88.10
2018-09-19T04:02:53.124Z,88.40
2018-09-19T04:03:24.159Z,87.90
2018-09-19T04:03:55.211Z,88.50
2018-09-19T04:04:26.257Z,88.40
2018-09-19T04:04:57.302Z,88.40
2018-09-19T04:05:28.344Z,88.40
2018-09-19T04:05:59.391Z,88.30
2018-09-19T04:06:30.435Z,88.40
2018-09-19T04:07:01.480Z,88.40
2018-09-19T04:07:32.527Z,88.40
2018-09-19T04:08:03.578Z,88.30
2018-09-19T04:08:34.680Z,88.30
2018-09-19T04:09:05.735Z,88.40
2018-09-19T04:09:36.806Z,88.30
2018-09-19T04:10:07.896Z,88.80
2018-09-19T04:10:38.934Z,88.40
2018-09-19T04:11:10.012Z,88.60
2018-09-19T04:11:41.058Z,88.80
2018-09-19T04:12:12.099Z,89.00
2018-09-19T04:12:43.150Z,89.20
2018-09-19T04:13:14.199Z,89.20
2018-09-19T04:13:45.240Z,89.10
2018-09-19T04:14:16.303Z,89.10
2018-09-19T04:14:47.350Z,89.00
2018-09-19T04:15:18.390Z,88.90
2018-09-19T04:15:49.438Z,88.90
2018-09-19T04:16:20.486Z,88.80
2018-09-19T04:16:51.538Z,88.80
2018-09-19T04:17:22.592Z,88.70
2018-09-19T04:17:53.715Z,88.60
2018-09-19T04:18:24.759Z,88.50
2018-09-19T04:18:55.798Z,88.60
2018-09-19T04:19:26.847Z,88.70
2018-09-19T04:19:57.895Z,88.50
2018-09-19T04:20:28.940Z,88.70
2018-09-19T04:20:59.986Z,88.60
2018-09-19T04:21:31.035Z,88.60
2018-09-19T04:22:02.084Z,88.80
2018-09-19T04:22:33.132Z,88.70
2018-09-19T04:23:04.191Z,88.90
2018-09-19T04:23:35.251Z,88.80
2018-09-19T04:24:06.299Z,88.60
2018-09-19T04:24:37.355Z,88.70
2018-09-19T04:25:08.525Z,88.60
2018-09-19T04:25:39.559Z,88.50
2018-09-19T04:26:10.613Z,88.50
2018-09-19T04:26:41.657Z,88.40
2018-09-19T04:27:12.702Z,88.40
2018-09-19T04:27:43.753Z,88.30
2018-09-19T04:28:14.802Z,88.30
2018-09-19T04:28:45.857Z,88.30
2018-09-19T04:29:16.899Z,88.20
2018-09-19T04:29:47.952Z,88.20
2018-09-19T04:30:18.990Z,88.20
2018-09-19T04:30:50.035Z,88.20
2018-09-19T04:31:21.083Z,87.70
2018-09-19T04:31:52.127Z,88.20
2018-09-19T04:32:23.201Z,88.20
2018-09-19T04:32:54.223Z,88.20
2018-09-19T04:33:25.287Z,88.20
2018-09-19T04:33:56.326Z,88.40
2018-09-19T04:34:27.368Z,88.20
2018-09-19T04:34:58.417Z,88.20
2018-09-19T04:35:29.460Z,88.20
2018-09-19T04:36:00.504Z,88.20
2018-09-19T04:36:31.551Z,88.20
2018-09-19T04:37:02.604Z,88.20
2018-09-19T04:37:33.646Z,88.20
2018-09-19T04:38:04.694Z,88.20
2018-09-19T04:38:35.773Z,88.20
2018-09-19T04:39:06.815Z,88.20
2018-09-19T04:39:37.864Z,88.20
2018-09-19T04:40:08.901Z,88.20
2018-09-19T04:40:39.956Z,88.20
2018-09-19T04:41:10.990Z,88.20
2018-09-19T04:41:42.042Z,88.30
2018-09-19T04:42:13.084Z,88.20
2018-09-19T04:42:44.128Z,88.20
2018-09-19T04:43:15.194Z,88.20
2018-09-19T04:43:46.231Z,88.20
2018-09-19T04:44:17.281Z,88.30
2018-09-19T04:44:48.318Z,88.20
2018-09-19T04:45:19.455Z,88.30
2018-09-19T04:45:50.740Z,88.30
2018-09-19T04:46:21.790Z,88.30
2018-09-19T04:46:52.835Z,88.50
2018-09-19T04:47:23.901Z,88.50
2018-09-19T04:47:54.999Z,88.60
2018-09-19T04:48:26.050Z,88.80
2018-09-19T04:48:57.091Z,88.80
2018-09-19T04:49:28.139Z,88.80
2018-09-19T04:49:59.188Z,88.70
2018-09-19T04:50:30.237Z,88.70
2018-09-19T04:51:01.287Z,88.60
2018-09-19T04:51:32.484Z,88.60
2018-09-19T04:52:03.439Z,88.60
2018-09-19T04:52:34.486Z,88.60
2018-09-19T04:53:05.531Z,88.60
2018-09-19T04:53:36.584Z,88.50
2018-09-19T04:54:07.624Z,88.50
2018-09-19T04:54:38.675Z,88.40
2018-09-19T04:55:09.729Z,88.30
2018-09-19T04:55:40.775Z,88.40
2018-09-19T04:56:11.816Z,88.40
2018-09-19T04:56:42.879Z,88.40
2018-09-19T04:57:13.928Z,88.30
2018-09-19T04:57:44.967Z,88.30
2018-09-19T04:58:16.013Z,88.40
2018-09-19T04:58:47.063Z,88.50
2018-09-19T04:59:18.126Z,88.50
2018-09-19T04:59:49.156Z,88.50
2018-09-19T05:00:20.209Z,88.40
2018-09-19T05:00:51.253Z,88.40
2018-09-19T05:01:22.292Z,88.30
2018-09-19T05:01:53.339Z,88.50
2018-09-19T05:02:24.389Z,88.20
2018-09-19T05:02:55.444Z,88.20
2018-09-19T05:03:26.504Z,88.20
2018-09-19T05:03:57.547Z,88.10
2018-09-19T05:04:28.598Z,88.10
2018-09-19T05:04:59.639Z,88.10
2018-09-19T05:05:30.684Z,88.00
2018-09-19T05:06:01.733Z,88.00
2018-09-19T05:06:32.781Z,88.10
2018-09-19T05:07:03.818Z,88.10
2018-09-19T05:07:34.863Z,88.00
2018-09-19T05:08:05.913Z,88.00
2018-09-19T05:08:36.967Z,88.00
2018-09-19T05:09:08.011Z,88.10
2018-09-19T05:09:39.058Z,88.40
2018-09-19T05:10:10.105Z,88.00
2018-09-19T05:10:41.150Z,88.00
2018-09-19T05:11:12.205Z,88.00
2018-09-19T05:11:43.247Z,88.00
2018-09-19T05:12:14.299Z,88.00
2018-09-19T05:12:45.333Z,88.00
2018-09-19T05:13:16.384Z,88.00
2018-09-19T05:13:47.443Z,88.00
2018-09-19T05:14:18.482Z,88.00
2018-09-19T05:14:49.530Z,88.00
2018-09-19T05:15:20.574Z,88.10
2018-09-19T05:15:51.623Z,88.00
2018-09-19T05:16:22.670Z,88.80
2018-09-19T05:16:53.712Z,88.00
2018-09-19T05:17:24.751Z,88.00
2018-09-19T05:17:55.795Z,88.00
2018-09-19T05:18:26.854Z,88.10
2018-09-19T05:18:57.906Z,88.10
2018-09-19T05:19:28.948Z,88.00
2018-09-19T05:19:59.988Z,88.10
2018-09-19T05:20:31.034Z,88.00
2018-09-19T05:21:02.079Z,88.10
2018-09-19T05:21:33.136Z,88.10
2018-09-19T05:22:04.249Z,88.10
2018-09-19T05:22:35.291Z,88.10
2018-09-19T05:23:06.365Z,88.10
2018-09-19T05:23:37.421Z,88.20
2018-09-19T05:24:08.464Z,88.50
2018-09-19T05:24:39.512Z,88.80
2018-09-19T05:25:10.552Z,88.80
2018-09-19T05:25:41.592Z,88.70
2018-09-19T05:26:12.635Z,88.70
2018-09-19T05:26:43.693Z,88.60
2018-09-19T05:27:14.734Z,88.60
2018-09-19T05:27:45.775Z,88.50
2018-09-19T05:28:16.828Z,88.40
2018-09-19T05:28:47.876Z,88.30
2018-09-19T05:29:18.924Z,88.20
2018-09-19T05:29:49.967Z,88.20
2018-09-19T05:30:21.014Z,88.10
2018-09-19T05:30:52.070Z,88.00
2018-09-19T05:31:23.122Z,88.00
2018-09-19T05:31:54.166Z,88.10
2018-09-19T05:32:25.215Z,88.10
2018-09-19T05:32:56.262Z,88.10
2018-09-19T05:33:27.302Z,88.00
2018-09-19T05:33:58.365Z,88.10
2018-09-19T05:34:29.407Z,88.10
2018-09-19T05:35:00.458Z,89.00
2018-09-19T05:35:31.519Z,88.20
2018-09-19T05:36:02.565Z,88.20
2018-09-19T05:36:33.596Z,88.30
2018-09-19T05:37:04.685Z,88.30
2018-09-19T05:37:35.696Z,88.20
2018-09-19T05:38:06.736Z,88.20
2018-09-19T05:38:37.795Z,88.10
2018-09-19T05:39:08.847Z,88.10
2018-09-19T05:39:39.892Z,88.00
2018-09-19T05:40:10.932Z,88.00
2018-09-19T05:40:41.984Z,87.90
2018-09-19T05:41:13.031Z,88.00
2018-09-19T05:41:44.075Z,87.90
2018-09-19T05:42:15.124Z,88.00
2018-09-19T05:42:46.172Z,88.00
2018-09-19T05:43:17.211Z,87.90
2018-09-19T05:43:48.270Z,87.80
2018-09-19T05:44:19.313Z,87.90
2018-09-19T05:44:50.356Z,87.90
2018-09-19T05:45:21.411Z,87.90
2018-09-19T05:45:52.455Z,87.80
2018-09-19T05:46:23.541Z,87.80
2018-09-19T05:46:54.546Z,87.80
2018-09-19T05:47:25.607Z,87.80
2018-09-19T05:47:56.653Z,87.90
2018-09-19T05:48:27.691Z,87.90
2018-09-19T05:48:58.742Z,87.80
2018-09-19T05:49:29.786Z,87.90
2018-09-19T05:50:00.823Z,87.90
2018-09-19T05:50:31.875Z,88.00
2018-09-19T05:51:02.935Z,88.00
2018-09-19T05:51:33.984Z,87.90
2018-09-19T05:52:05.027Z,87.90
2018-09-19T05:52:36.072Z,87.90
2018-09-19T05:53:07.129Z,87.90
2018-09-19T05:53:38.179Z,87.90
2018-09-19T05:54:09.235Z,88.00
2018-09-19T05:54:40.321Z,87.90
2018-09-19T05:55:11.323Z,88.00
2018-09-19T05:55:42.498Z,88.00
2018-09-19T05:56:13.640Z,87.90
2018-09-19T05:56:44.678Z,87.90
2018-09-19T05:57:15.726Z,88.00
2018-09-19T05:57:46.776Z,88.00
2018-09-19T05:58:17.828Z,88.00
2018-09-19T05:58:48.891Z,88.00
2018-09-19T05:59:20.015Z,88.10
2018-09-19T05:59:51.060Z,88.30
2018-09-19T06:00:22.107Z,88.50
2018-09-19T06:00:53.175Z,88.70
2018-09-19T06:01:24.232Z,88.70
2018-09-19T06:01:55.275Z,88.70
2018-09-19T06:02:26.331Z,88.80
2018-09-19T06:02:57.379Z,88.50
2018-09-19T06:03:28.426Z,88.40
2018-09-19T06:03:59.488Z,88.40
2018-09-19T06:04:30.536Z,88.40
2018-09-19T06:05:01.637Z,88.30
2018-09-19T06:05:32.630Z,88.20
2018-09-19T06:06:03.675Z,88.20
2018-09-19T06:06:34.715Z,88.10
2018-09-19T06:07:05.761Z,88.10
2018-09-19T06:07:36.813Z,88.10
2018-09-19T06:08:07.855Z,88.00
2018-09-19T06:08:38.910Z,87.90
2018-09-19T06:09:09.966Z,87.90
2018-09-19T06:09:41.006Z,87.90
2018-09-19T06:10:12.048Z,88.00
2018-09-19T06:10:43.091Z,88.00
2018-09-19T06:11:14.144Z,88.10
2018-09-19T06:11:45.195Z,88.10
2018-09-19T06:12:16.233Z,88.10
2018-09-19T06:12:47.326Z,87.40
2018-09-19T06:13:18.343Z,88.10
2018-09-19T06:13:49.400Z,88.00
2018-09-19T06:14:20.446Z,88.00
2018-09-19T06:14:51.493Z,88.00
2018-09-19T06:15:22.547Z,87.90
2018-09-19T06:15:53.579Z,87.90
2018-09-19T06:16:24.629Z,87.80
2018-09-19T06:16:55.670Z,87.80
2018-09-19T06:17:26.726Z,87.80
2018-09-19T06:17:57.762Z,87.80
2018-09-19T06:18:28.826Z,87.80
2018-09-19T06:18:59.879Z,87.80
2018-09-19T06:19:30.927Z,87.80
2018-09-19T06:20:01.972Z,87.80
2018-09-19T06:20:33.016Z,87.80
2018-09-19T06:21:04.068Z,87.80
2018-09-19T06:21:35.111Z,87.80
2018-09-19T06:22:06.402Z,87.80
2018-09-19T06:22:37.447Z,87.80
2018-09-19T06:23:08.494Z,87.80
2018-09-19T06:23:39.535Z,87.80
2018-09-19T06:24:10.587Z,87.80
2018-09-19T06:24:41.639Z,88.00
2018-09-19T06:25:12.687Z,87.80
2018-09-19T06:25:43.733Z,87.70
2018-09-19T06:26:14.790Z,87.70
2018-09-19T06:26:45.830Z,87.80
2018-09-19T06:27:16.877Z,87.80
2018-09-19T06:27:47.922Z,87.80
2018-09-19T06:28:18.967Z,87.80
2018-09-19T06:28:50.024Z,87.80
2018-09-19T06:29:21.070Z,87.80
2018-09-19T06:29:52.112Z,87.80
2018-09-19T06:30:23.160Z,87.80
2018-09-19T06:30:54.203Z,87.70
2018-09-19T06:31:25.247Z,87.80
2018-09-19T06:31:56.303Z,87.90
2018-09-19T06:32:27.351Z,87.90
2018-09-19T06:32:58.485Z,87.80
2018-09-19T06:33:29.526Z,87.80
2018-09-19T06:34:00.512Z,87.80
2018-09-19T06:34:31.571Z,87.90
2018-09-19T06:35:02.608Z,87.90
2018-09-19T06:35:33.656Z,88.00
2018-09-19T06:36:04.725Z,88.00
2018-09-19T06:36:35.745Z,88.10
2018-09-19T06:37:06.852Z,88.30
2018-09-19T06:37:37.835Z,88.50
2018-09-19T06:38:08.878Z,88.50
2018-09-19T06:38:39.927Z,88.50
2018-09-19T06:39:10.984Z,88.40
2018-09-19T06:39:42.032Z,88.40
2018-09-19T06:40:13.207Z,88.40